Time;durP1;ratioP1;P1;durP2;ratioP2;P2;SDS_P1;SDS_P2;PMS_P1;PMS_P2;Temp;Humidity;BMP_temperature;BMP_pressure;BME280_temperature;BME280_humidity;BME280_pressure;Samples;Min_cycle;Max_cycle;Signal;HPM_P1;HPM_P2
2023/10/21 00:02:03;;;;;;;3.90;1.52;;;12.10;99.90;;;;;;5035064;28;20056;-77
2023/10/21 00:04:30;;;;;;;10.88;2.25;;;12.10;99.90;;;;;;5036033;28;20064;-77
2023/10/21 00:06:56;;;;;;;5.40;1.40;;;12.10;99.90;;;;;;5035622;28;20500;-77
2023/10/21 00:09:21;;;;;;;10.73;1.73;;;12.60;99.90;;;;;;5035437;28;20097;-77
2023/10/21 00:11:47;;;;;;;5.95;1.65;;;12.00;99.90;;;;;;5035983;28;20064;-76
2023/10/21 00:14:12;;;;;;;3.95;1.35;;;12.00;99.90;;;;;;5034815;28;20017;-77
2023/10/21 00:16:38;;;;;;;6.72;1.40;;;12.20;99.90;;;;;;5036054;28;20028;-76
2023/10/21 00:19:04;;;;;;;10.48;2.33;;;11.90;99.90;;;;;;5034838;28;20018;-77
2023/10/21 00:21:30;;;;;;;2.97;1.08;;;11.90;99.90;;;;;;5034408;28;20374;-77
2023/10/21 00:23:55;;;;;;;4.25;1.92;;;11.90;99.90;;;;;;5036125;28;20060;-76
2023/10/21 00:26:21;;;;;;;3.33;1.65;;;11.80;99.90;;;;;;5035974;28;20036;-77
2023/10/21 00:28:47;;;;;;;4.68;1.23;;;11.80;99.90;;;;;;5035327;28;20017;-77
2023/10/21 00:31:12;;;;;;;5.70;1.35;;;11.80;99.90;;;;;;5036515;28;20021;-77
2023/10/21 00:33:38;;;;;;;7.40;1.38;;;11.80;99.90;;;;;;5035424;28;20017;-77
2023/10/21 00:36:04;;;;;;;5.47;1.50;;;11.70;99.90;;;;;;5034252;28;20545;-77
2023/10/21 00:38:29;;;;;;;5.70;1.33;;;11.70;99.90;;;;;;5035332;28;20469;-76
2023/10/21 00:40:56;;;;;;;8.77;2.30;;;11.70;99.90;;;;;;5034999;28;20070;-77
2023/10/21 00:43:39;;;;;;;8.93;1.38;;;11.70;99.90;;;;;;5034844;28;20412;-77
2023/10/21 00:46:26;;;;;;;10.13;1.40;;;11.70;99.90;;;;;;5033369;28;20045;-77
2023/10/21 00:48:55;;;;;;;6.65;1.40;;;11.70;99.90;;;;;;5035031;28;20025;-76
2023/10/21 00:51:21;;;;;;;8.48;1.95;;;11.70;99.90;;;;;;5035566;28;20031;-76
2023/10/21 00:53:47;;;;;;;5.28;1.85;;;11.70;99.90;;;;;;5034244;28;20362;-77
2023/10/21 00:56:12;;;;;;;3.92;0.90;;;11.70;99.90;;;;;;5035328;28;20087;-77
2023/10/21 00:58:40;;;;;;;2.50;1.25;;;11.60;99.90;;;;;;5035490;28;20033;-77
2023/10/21 01:01:07;;;;;;;8.23;1.73;;;11.70;99.90;;;;;;5035360;28;20477;-77
2023/10/21 01:03:34;;;;;;;6.07;2.10;;;11.70;99.90;;;;;;5034850;28;20103;-77
2023/10/21 01:06:00;;;;;;;5.30;1.00;;;11.70;99.90;;;;;;5033664;28;20489;-77
2023/10/21 01:08:25;;;;;;;7.03;1.23;;;11.70;99.90;;;;;;5034085;28;20036;-77
2023/10/21 01:10:51;;;;;;;6.97;1.27;;;11.70;99.90;;;;;;5034940;28;20021;-76
2023/10/21 01:13:17;;;;;;;6.25;1.60;;;11.60;99.90;;;;;;5035472;28;20057;-77
2023/10/21 01:15:43;;;;;;;7.25;2.13;;;11.60;99.90;;;;;;5033882;28;20017;-77
2023/10/21 01:18:09;;;;;;;6.40;1.88;;;11.60;99.90;;;;;;5033499;28;20022;-77
2023/10/21 01:20:39;;;;;;;5.30;1.10;;;12.10;99.90;;;;;;5034167;28;20100;-77
2023/10/21 01:23:13;;;;;;;6.20;0.90;;;11.60;99.90;;;;;;5034887;28;20028;-77
2023/10/21 01:25:38;;;;;;;8.35;1.50;;;11.10;99.90;;;;;;5033569;28;20108;-77
2023/10/21 01:28:04;;;;;;;5.00;1.35;;;11.60;99.90;;;;;;5033642;28;20128;-76
2023/10/21 01:30:30;;;;;;;3.35;1.00;;;11.70;99.90;;;;;;5033286;28;20026;-76
2023/10/21 01:32:55;;;;;;;9.32;1.73;;;11.60;99.90;;;;;;5031767;28;20030;-76
2023/10/21 01:35:24;;;;;;;1.70;1.05;;;11.60;99.90;;;;;;5033695;28;20461;-76
2023/10/21 01:37:49;;;;;;;4.43;1.15;;;11.70;99.90;;;;;;5033256;28;20030;-76
2023/10/21 01:40:15;;;;;;;6.70;1.10;;;11.70;99.90;;;;;;5032192;28;20029;-77
2023/10/21 01:42:41;;;;;;;8.70;2.50;;;11.70;99.90;;;;;;5033053;28;20105;-76
2023/10/21 01:45:08;;;;;;;5.57;1.38;;;11.80;99.90;;;;;;5031862;28;20079;-76
2023/10/21 01:47:35;;;;;;;6.25;1.02;;;11.80;99.90;;;;;;5032984;28;20065;-76
2023/10/21 01:50:02;;;;;;;9.02;1.50;;;11.70;99.90;;;;;;5031838;28;20024;-76
2023/10/21 01:52:28;;;;;;;6.82;1.15;;;11.70;99.90;;;;;;5031816;28;20029;-77
2023/10/21 01:54:54;;;;;;;6.25;1.02;;;11.70;99.90;;;;;;5033059;28;20068;-76
2023/10/21 01:57:20;;;;;;;4.07;1.40;;;11.70;99.90;;;;;;5033156;28;20393;-76
2023/10/21 01:59:46;;;;;;;5.88;1.52;;;11.70;99.90;;;;;;5032990;28;20439;-76
2023/10/21 02:02:11;;;;;;;1.60;1.08;;;11.70;99.90;;;;;;5033124;28;20033;-77
2023/10/21 02:04:37;;;;;;;2.83;1.42;;;11.70;99.90;;;;;;5032768;28;20029;-77
2023/10/21 02:07:03;;;;;;;4.40;1.38;;;11.60;99.90;;;;;;5033174;28;20536;-77
2023/10/21 02:09:28;;;;;;;3.55;1.02;;;11.70;99.90;;;;;;5033145;28;20021;-77
2023/10/21 02:11:55;;;;;;;5.35;2.05;;;11.70;99.90;;;;;;5033962;28;20078;-76
2023/10/21 02:14:23;;;;;;;3.47;0.98;;;11.60;99.90;;;;;;5034550;28;20010;-77
2023/10/21 02:16:50;;;;;;;4.40;0.95;;;11.90;99.90;;;;;;5034185;28;20028;-77
2023/10/21 02:19:16;;;;;;;7.18;1.17;;;11.60;99.90;;;;;;5034021;28;20034;-77
2023/10/21 02:21:41;;;;;;;9.77;1.25;;;11.60;99.90;;;;;;5034981;28;20030;-76
2023/10/21 02:24:07;;;;;;;4.97;1.40;;;11.50;99.90;;;;;;5038197;28;20465;-77
2023/10/21 02:26:33;;;;;;;3.50;1.63;;;11.50;99.90;;;;;;5037701;28;20446;-77
2023/10/21 02:28:58;;;;;;;5.32;0.98;;;11.50;99.90;;;;;;5039160;28;20035;-77
2023/10/21 02:31:24;;;;;;;6.60;0.80;;;11.50;99.90;;;;;;5037769;28;20105;-77
2023/10/21 02:33:49;;;;;;;7.43;1.65;;;11.50;99.90;;;;;;5039835;28;20024;-77
2023/10/21 02:36:15;;;;;;;3.53;1.20;;;11.50;99.90;;;;;;5036910;28;20071;-77
2023/10/21 02:38:41;;;;;;;3.88;1.20;;;11.40;99.90;;;;;;5037540;28;20074;-77
2023/10/21 02:41:06;;;;;;;4.85;1.02;;;11.40;99.90;;;;;;5037556;28;20029;-77
2023/10/21 02:43:32;;;;;;;8.77;1.50;;;11.40;99.90;;;;;;5037606;28;20021;-77
2023/10/21 02:46:07;;;;;;;5.95;1.85;;;11.30;99.90;;;;;;5037846;28;20129;-77
2023/10/21 02:48:32;;;;;;;4.30;1.58;;;11.30;99.90;;;;;;5037483;28;20029;-77
2023/10/21 02:50:58;;;;;;;4.00;1.40;;;11.30;99.90;;;;;;5037816;28;20473;-77
2023/10/21 02:53:23;;;;;;;7.45;1.85;;;11.30;99.90;;;;;;5037472;28;20038;-77
2023/10/21 02:55:50;;;;;;;3.30;1.48;;;11.30;99.90;;;;;;5036239;28;20032;-77
2023/10/21 02:58:15;;;;;;;3.55;1.77;;;11.30;99.90;;;;;;5036169;28;20484;-77
2023/10/21 03:00:41;;;;;;;5.53;1.88;;;11.20;99.90;;;;;;5035237;28;20030;-78
2023/10/21 03:03:06;;;;;;;5.80;1.88;;;11.20;99.90;;;;;;5036991;28;20036;-77
2023/10/21 03:05:32;;;;;;;4.35;2.05;;;11.20;99.90;;;;;;5036670;28;20074;-77
2023/10/21 03:07:57;;;;;;;4.07;1.92;;;11.20;99.90;;;;;;5035739;28;20537;-77
2023/10/21 03:10:23;;;;;;;8.20;1.55;;;11.20;99.90;;;;;;5036470;28;20100;-77
2023/10/21 03:12:48;;;;;;;4.45;1.40;;;11.10;99.90;;;;;;5035843;28;20120;-77
2023/10/21 03:15:14;;;;;;;9.52;1.85;;;11.20;99.90;;;;;;5036470;28;20029;-77
2023/10/21 03:17:40;;;;;;;5.10;1.92;;;;;;;;;;5035832;28;20025;-77
2023/10/21 03:20:06;;;;;;;3.35;1.70;;;11.10;99.90;;;;;;5034894;28;20026;-77
2023/10/21 03:22:32;;;;;;;9.10;2.38;;;11.10;99.90;;;;;;5036574;28;20029;-77
2023/10/21 03:24:57;;;;;;;8.30;2.08;;;11.10;99.90;;;;;;5034945;28;20083;-77
2023/10/21 03:27:23;;;;;;;10.30;2.67;;;11.10;99.90;;;;;;5035978;28;20020;-77
2023/10/21 03:29:49;;;;;;;6.22;1.88;;;11.10;99.90;;;;;;5035322;28;20052;-77
2023/10/21 03:32:15;;;;;;;6.22;1.40;;;11.10;99.90;;;;;;5036599;28;20029;-77
2023/10/21 03:34:40;;;;;;;5.80;1.55;;;11.10;99.90;;;;;;5035188;28;20025;-77
2023/10/21 03:37:07;;;;;;;3.28;1.40;;;11.10;99.90;;;;;;5034880;28;20029;-77
2023/10/21 03:39:33;;;;;;;2.80;2.00;;;11.10;99.90;;;;;;5037357;28;20045;-77
2023/10/21 03:41:58;;;;;;;4.38;1.08;;;11.10;99.90;;;;;;5039134;28;20025;-77
2023/10/21 03:44:25;;;;;;;3.72;1.80;;;11.10;99.90;;;;;;5035540;28;20061;-77
2023/10/21 03:46:50;;;;;;;5.38;1.58;;;11.20;99.90;;;;;;5035940;28;20029;-77
2023/10/21 03:49:17;;;;;;;8.60;2.08;;;11.10;99.90;;;;;;5035555;28;20029;-77
2023/10/21 03:51:43;;;;;;;5.95;1.75;;;11.20;99.90;;;;;;5033593;28;20025;-77
2023/10/21 03:54:08;;;;;;;3.10;1.25;;;11.10;99.90;;;;;;5035405;28;20481;-77
2023/10/21 03:56:34;;;;;;;4.38;1.55;;;11.20;99.90;;;;;;5034903;28;20108;-77
2023/10/21 03:59:00;;;;;;;8.68;1.77;;;11.20;99.90;;;;;;5035406;28;20021;-77
2023/10/21 04:01:25;;;;;;;5.25;1.70;;;11.20;99.90;;;;;;5034836;28;20449;-77
2023/10/21 04:03:51;;;;;;;5.95;1.95;;;11.20;99.90;;;;;;5035211;28;20484;-77
2023/10/21 04:06:17;;;;;;;5.57;1.50;;;11.20;99.90;;;;;;5034218;28;20041;-77
2023/10/21 04:08:43;;;;;;;7.03;1.45;;;11.20;99.90;;;;;;5035490;28;20021;-76
2023/10/21 04:11:09;;;;;;;3.28;1.38;;;11.70;99.90;;;;;;5035717;28;20063;-76
2023/10/21 04:13:35;;;;;;;3.60;1.40;;;11.20;99.90;;;;;;5033558;28;20028;-77
2023/10/21 04:16:00;;;;;;;4.32;1.45;;;11.30;99.90;;;;;;5034603;28;20542;-77
2023/10/21 04:18:27;;;;;;;3.97;1.83;;;11.10;99.90;;;;;;5034596;28;20100;-77
2023/10/21 04:20:52;;;;;;;3.88;1.50;;;11.20;99.90;;;;;;5033302;28;20028;-77
2023/10/21 04:23:18;;;;;;;5.32;1.40;;;11.20;99.90;;;;;;5034573;28;20525;-77
2023/10/21 04:25:43;;;;;;;9.75;2.45;;;11.20;99.90;;;;;;5033099;28;20473;-77
2023/10/21 04:28:10;;;;;;;4.13;1.52;;;11.10;99.90;;;;;;5034081;28;20033;-77
2023/10/21 04:30:36;;;;;;;5.53;1.15;;;11.20;99.90;;;;;;5032853;28;20025;-77
2023/10/21 04:33:03;;;;;;;6.38;1.45;;;11.20;99.90;;;;;;5034080;28;20057;-77
2023/10/21 04:35:28;;;;;;;6.35;1.10;;;11.30;99.90;;;;;;5033884;28;20045;-77
2023/10/21 04:37:55;;;;;;;4.45;1.20;;;11.20;99.90;;;;;;5034073;28;20433;-77
2023/10/21 04:40:20;;;;;;;4.00;1.13;;;11.30;99.90;;;;;;5034027;28;20030;-77
2023/10/21 04:42:46;;;;;;;6.20;1.30;;;11.40;99.90;;;;;;5032842;28;20444;-77
2023/10/21 04:45:12;;;;;;;6.60;1.48;;;11.40;99.90;;;;;;5033313;28;20537;-77
2023/10/21 04:47:38;;;;;;;2.08;1.13;;;11.40;99.90;;;;;;5033851;28;20032;-77
2023/10/21 04:50:30;;;;;;;6.00;1.58;;;11.40;99.90;;;;;;5034086;28;20473;-77
2023/10/21 04:52:55;;;;;;;4.55;1.08;;;11.40;99.90;;;;;;5033916;28;20037;-77
2023/10/21 04:55:21;;;;;;;7.55;1.00;;;11.30;99.90;;;;;;5033915;28;20139;-77
2023/10/21 04:57:46;;;;;;;6.05;1.52;;;11.30;99.90;;;;;;5034156;28;20390;-77
2023/10/21 05:00:14;;;;;;;2.90;1.10;;;11.30;99.90;;;;;;5034519;28;20049;-77
2023/10/21 05:02:40;;;;;;;4.83;1.13;;;11.30;99.90;;;;;;5034001;28;20067;-77
2023/10/21 05:05:06;;;;;;;5.82;1.08;;;11.40;99.90;;;;;;5034598;28;20106;-77
2023/10/21 05:07:31;;;;;;;7.32;1.02;;;11.40;99.90;;;;;;5034187;28;20426;-77
2023/10/21 05:09:57;;;;;;;8.82;1.40;;;11.50;99.90;;;;;;5034458;28;20033;-78
2023/10/21 05:12:23;;;;;;;5.53;1.30;;;11.40;99.90;;;;;;5034009;28;20104;-78
2023/10/21 05:14:48;;;;;;;8.38;1.05;;;11.50;99.90;;;;;;5033514;28;20501;-78
2023/10/21 05:17:14;;;;;;;6.07;1.15;;;11.60;99.90;;;;;;5034264;28;20465;-77
2023/10/21 05:19:40;;;;;;;7.97;0.98;;;11.60;99.90;;;;;;5033951;28;20026;-77
2023/10/21 05:22:06;;;;;;;7.00;1.77;;;11.60;99.90;;;;;;5035338;28;20469;-77
2023/10/21 05:24:31;;;;;;;4.05;0.98;;;11.80;99.90;;;;;;5035031;28;20100;-77
2023/10/21 05:26:58;;;;;;;7.03;0.98;;;11.80;99.90;;;;;;5033053;28;20444;-77
2023/10/21 05:29:24;;;;;;;10.30;1.90;;;11.80;99.90;;;;;;5033757;28;20389;-78
2023/10/21 05:31:50;;;;;;;4.95;1.15;;;11.90;99.90;;;;;;5034484;28;20017;-77
2023/10/21 05:34:18;;;;;;;5.40;1.67;;;11.90;99.90;;;;;;5034796;28;20545;-77
2023/10/21 05:36:44;;;;;;;3.72;1.73;;;11.90;99.90;;;;;;5033825;28;20043;-76
2023/10/21 05:39:13;;;;;;;4.93;1.45;;;12.10;99.90;;;;;;5032635;28;20036;-77
2023/10/21 05:41:42;;;;;;;;;;;12.00;99.90;;;;;;5034253;28;20029;-77
2023/10/21 05:44:08;;;;;;;4.13;1.35;;;12.00;99.90;;;;;;5033960;28;19954;-77
2023/10/21 05:46:34;;;;;;;5.97;1.38;;;12.00;99.90;;;;;;5035261;28;20029;-77
2023/10/21 05:48:59;;;;;;;5.22;2.05;;;12.10;99.90;;;;;;5038135;28;20066;-77
2023/10/21 05:51:25;;;;;;;7.55;1.50;;;12.10;99.90;;;;;;5037541;28;20056;-78
2023/10/21 05:53:51;;;;;;;5.25;1.50;;;12.10;99.90;;;;;;5038914;28;20092;-78
2023/10/21 05:56:17;;;;;;;8.73;1.80;;;12.70;99.90;;;;;;5035488;28;20026;-78
2023/10/21 05:58:43;;;;;;;6.00;1.40;;;12.40;99.90;;;;;;5041819;28;20200;-78
2023/10/21 06:01:09;;;;;;;5.25;1.40;;;12.10;99.90;;;;;;5042291;28;20033;-77
2023/10/21 06:03:39;;;;;;;6.38;1.40;;;12.10;99.90;;;;;;5038848;28;20075;-77
2023/10/21 06:06:05;;;;;;;6.18;1.20;;;12.00;99.90;;;;;;5037072;28;20064;-77
2023/10/21 06:08:32;;;;;;;7.10;1.50;;;12.00;99.90;;;;;;5038265;28;20021;-77
2023/10/21 06:10:58;;;;;;;4.15;1.25;;;12.00;99.90;;;;;;5036991;28;20017;-77
2023/10/21 06:13:24;;;;;;;16.75;2.22;;;11.90;99.90;;;;;;5038271;28;20022;-78
2023/10/21 06:15:50;;;;;;;2.03;1.33;;;11.90;99.90;;;;;;5038526;28;20025;-78
2023/10/21 06:18:16;;;;;;;4.82;1.38;;;11.80;99.90;;;;;;5036970;28;20160;-77
2023/10/21 06:20:49;;;;;;;11.48;1.55;;;11.80;99.90;;;;;;5038880;28;20049;-77
2023/10/21 06:23:15;;;;;;;7.07;1.75;;;11.70;99.90;;;;;;5037645;28;20029;-77
2023/10/21 06:25:40;;;;;;;5.93;1.50;;;11.70;99.90;;;;;;5037668;28;20132;-77
2023/10/21 06:28:06;;;;;;;5.57;1.23;;;11.70;99.90;;;;;;5036675;28;20106;-77
2023/10/21 06:30:34;;;;;;;2.53;0.88;;;11.70;99.90;;;;;;5037579;28;20025;-77
2023/10/21 06:32:59;;;;;;;2.30;1.33;;;11.80;99.90;;;;;;5037631;28;20151;-77
2023/10/21 06:35:25;;;;;;;7.20;1.52;;;11.80;99.90;;;;;;5037307;28;20485;-78
2023/10/21 06:37:51;;;;;;;7.63;1.50;;;11.80;99.90;;;;;;5041546;28;20022;-78
2023/10/21 06:40:16;;;;;;;9.75;1.23;;;11.80;99.90;;;;;;5042351;28;20018;-78
2023/10/21 06:42:42;;;;;;;5.78;1.27;;;11.90;99.90;;;;;;5043134;28;20033;-78
2023/10/21 06:45:08;;;;;;;4.78;1.02;;;11.90;99.90;;;;;;5042612;28;20036;-77
2023/10/21 06:47:34;;;;;;;7.50;1.27;;;11.90;99.90;;;;;;5038939;28;20477;-78
2023/10/21 06:50:00;;;;;;;6.97;1.58;;;11.90;99.90;;;;;;5039551;28;20021;-78
2023/10/21 06:52:26;;;;;;;4.00;1.20;;;11.90;99.90;;;;;;5040749;28;20113;-78
2023/10/21 06:54:54;;;;;;;5.80;1.17;;;12.00;99.90;;;;;;5037805;28;20018;-77
2023/10/21 06:57:20;;;;;;;4.82;1.13;;;12.00;99.90;;;;;;5038048;28;20060;-78
2023/10/21 06:59:46;;;;;;;5.38;1.00;;;12.10;99.90;;;;;;5037573;28;20021;-76
2023/10/21 07:02:12;;;;;;;5.85;1.27;;;12.10;99.90;;;;;;5039976;28;20034;-78
2023/10/21 07:04:37;;;;;;;7.68;1.27;;;12.10;99.90;;;;;;5037650;28;20025;-77
2023/10/21 07:07:06;;;;;;;8.52;1.50;;;12.10;99.90;;;;;;5038852;28;20037;-77
2023/10/21 07:09:31;;;;;;;6.32;0.80;;;12.20;99.90;;;;;;5039453;28;20036;-76
2023/10/21 07:11:57;;;;;;;7.72;1.30;;;12.20;99.90;;;;;;5040290;28;20025;-78
2023/10/21 07:14:23;;;;;;;7.20;1.23;;;12.20;99.90;;;;;;5041070;28;20480;-77
2023/10/21 07:16:48;;;;;;;4.22;1.27;;;12.30;99.90;;;;;;5040412;28;20037;-78
2023/10/21 07:19:14;;;;;;;5.68;1.98;;;12.40;99.90;;;;;;5038874;28;20017;-77
2023/10/21 07:21:39;;;;;;;6.68;0.82;;;12.50;99.90;;;;;;5041251;28;20041;-78
2023/10/21 07:24:06;;;;;;;3.38;1.15;;;12.40;99.90;;;;;;5042411;28;20037;-78
2023/10/21 07:26:32;;;;;;;9.38;2.58;;;12.50;99.90;;;;;;5041192;28;20021;-77
2023/10/21 07:28:58;;;;;;;5.45;0.80;;;12.50;99.90;;;;;;5039062;28;20033;-78
2023/10/21 07:31:24;;;;;;;5.05;1.05;;;12.60;99.90;;;;;;5036839;28;20153;-75
2023/10/21 07:33:51;;;;;;;4.93;1.38;;;12.70;99.90;;;;;;5038376;28;20022;-78
2023/10/21 07:36:17;;;;;;;4.22;0.70;;;12.70;99.90;;;;;;5036399;28;20076;-77
2023/10/21 07:38:42;;;;;;;2.63;0.98;;;12.80;99.90;;;;;;5035360;28;20025;-75
2023/10/21 07:41:12;;;;;;;5.60;0.77;;;12.70;99.90;;;;;;5033743;28;20434;-75
2023/10/21 07:43:37;;;;;;;7.00;0.90;;;12.80;99.90;;;;;;5033790;28;20021;-75
2023/10/21 07:46:03;;;;;;;15.52;2.33;;;13.60;99.90;;;;;;5038691;28;20029;-78
2023/10/21 07:48:29;;;;;;;10.15;1.85;;;12.80;99.90;;;;;;5037735;28;20025;-77
2023/10/21 07:50:58;;;;;;;8.95;1.10;;;12.80;99.90;;;;;;5035974;28;20519;-77
2023/10/21 07:53:23;;;;;;;4.57;0.85;;;12.90;99.90;;;;;;5033747;28;20032;-77
2023/10/21 07:55:49;;;;;;;4.00;0.88;;;12.90;99.90;;;;;;5034993;28;20017;-77
2023/10/21 07:58:16;;;;;;;3.95;0.98;;;13.00;99.90;;;;;;5034591;28;20109;-76
2023/10/21 08:00:42;;;;;;;2.65;0.50;;;13.00;99.90;;;;;;5033248;28;20396;-77
2023/10/21 08:03:08;;;;;;;4.47;1.33;;;13.10;99.90;;;;;;5034856;28;20075;-77
2023/10/21 08:05:33;;;;;;;7.65;1.13;;;13.10;99.90;;;;;;5034295;28;20029;-77
2023/10/21 08:07:59;;;;;;;4.75;1.77;;;13.10;99.90;;;;;;5034645;28;20080;-77
2023/10/21 08:10:24;;;;;;;9.27;1.05;;;13.10;99.90;;;;;;5034402;28;20072;-77
2023/10/21 08:12:50;;;;;;;4.25;1.08;;;13.10;99.90;;;;;;5034982;28;20029;-76
2023/10/21 08:15:15;;;;;;;5.10;1.05;;;13.20;99.90;;;;;;5035467;28;20024;-78
2023/10/21 08:17:41;;;;;;;4.72;1.00;;;13.10;99.90;;;;;;5035321;28;20028;-77
2023/10/21 08:20:07;;;;;;;1.85;0.52;;;13.10;99.90;;;;;;5035030;28;20022;-77
2023/10/21 08:22:34;;;;;;;5.40;0.60;;;13.20;99.90;;;;;;5035702;28;20112;-76
2023/10/21 08:25:00;;;;;;;3.55;0.40;;;13.20;99.90;;;;;;5034479;28;20025;-76
2023/10/21 08:27:26;;;;;;;5.55;0.68;;;13.20;99.90;;;;;;5033377;28;20485;-78
2023/10/21 08:29:53;;;;;;;1.95;0.45;;;13.20;99.90;;;;;;5035479;28;20029;-77
2023/10/21 08:32:19;;;;;;;1.30;0.15;;;13.40;99.90;;;;;;5033796;28;20048;-77
2023/10/21 08:34:44;;;;;;;1.25;0.22;;;13.10;99.90;;;;;;5033103;28;20021;-77
2023/10/21 08:37:10;;;;;;;1.55;0.20;;;13.10;99.90;;;;;;5033452;28;20088;-77
2023/10/21 08:39:37;;;;;;;2.00;0.20;;;14.10;99.90;;;;;;5035514;28;20052;-77
2023/10/21 08:42:02;;;;;;;1.02;0.28;;;13.20;99.90;;;;;;5033689;28;20033;-77
2023/10/21 08:44:30;;;;;;;1.65;0.30;;;13.20;99.90;;;;;;5033779;28;20026;-77
2023/10/21 08:46:58;;;;;;;1.48;0.10;;;13.20;99.90;;;;;;5032525;28;20025;-77
2023/10/21 08:49:24;;;;;;;0.45;0.10;;;13.20;99.90;;;;;;5034086;28;20524;-77
2023/10/21 08:51:52;;;;;;;1.17;0.10;;;13.30;99.90;;;;;;5034221;28;20049;-77
2023/10/21 08:54:19;;;;;;;3.20;0.00;;;13.50;99.90;;;;;;5034510;28;20025;-77
2023/10/21 08:56:48;;;;;;;1.05;0.03;;;13.40;99.90;;;;;;5033582;28;20030;-79
2023/10/21 08:59:14;;;;;;;2.15;0.00;;;13.50;99.90;;;;;;5033644;28;20397;-78
2023/10/21 09:01:40;;;;;;;8.07;0.10;;;13.60;99.90;;;;;;5034862;28;20014;-77
2023/10/21 09:04:06;;;;;;;2.30;0.00;;;13.60;99.90;;;;;;5035021;28;20412;-76
2023/10/21 09:06:32;;;;;;;4.38;0.00;;;13.60;99.90;;;;;;5034545;28;20391;-77
2023/10/21 09:08:57;;;;;;;2.30;0.00;;;14.50;99.90;;;;;;5033786;28;20025;-76
2023/10/21 09:11:29;;;;;;;0.30;0.20;;;13.60;99.90;;;;;;5034571;28;20017;-77
2023/10/21 09:13:58;;;;;;;1.02;0.00;;;13.90;99.90;;;;;;5034419;28;20030;-76
2023/10/21 09:16:34;;;;;;;0.08;0.00;;;13.60;99.90;;;;;;5033263;28;20021;-77
2023/10/21 09:19:03;;;;;;;0.40;0.00;;;13.60;99.90;;;;;;5033103;28;20045;-76
2023/10/21 09:21:31;;;;;;;0.25;0.00;;;13.60;99.90;;;;;;5034583;28;20021;-76
2023/10/21 09:23:56;;;;;;;1.45;0.00;;;13.60;99.90;;;;;;5033184;28;20026;-78
2023/10/21 09:26:31;;;;;;;0.13;0.00;;;13.60;99.90;;;;;;5034047;28;20034;-77
2023/10/21 09:29:11;;;;;;;0.30;0.00;;;13.70;99.90;;;;;;5034385;28;20028;-78
2023/10/21 09:31:46;;;;;;;3.65;0.40;;;14.40;99.90;;;;;;5032680;28;20512;-78
2023/10/21 09:34:26;;;;;;;0.10;0.00;;;13.70;99.90;;;;;;5034691;28;20140;-78
2023/10/21 09:37:02;;;;;;;0.85;0.00;;;13.70;99.90;;;;;;5033911;28;20013;-78
2023/10/21 09:39:36;;;;;;;0.55;0.25;;;13.70;99.90;;;;;;5033237;28;20497;-78
2023/10/21 09:42:03;;;;;;;0.45;0.00;;;13.70;99.90;;;;;;5035307;28;20029;-78
2023/10/21 09:44:30;;;;;;;0.13;0.00;;;13.70;99.90;;;;;;5033467;28;20102;-78
2023/10/21 09:46:58;;;;;;;0.30;0.00;;;13.90;99.90;;;;;;5034056;28;20481;-78
2023/10/21 09:49:24;;;;;;;4.18;0.15;;;13.70;99.90;;;;;;5034399;28;20385;-78
2023/10/21 09:52:04;;;;;;;0.13;0.00;;;13.70;99.90;;;;;;5033750;28;20014;-78
2023/10/21 09:54:42;;;;;;;1.73;0.00;;;13.70;99.90;;;;;;5033927;28;20032;-76
2023/10/21 09:57:12;;;;;;;0.50;0.00;;;13.70;99.90;;;;;;5033381;28;20481;-77
2023/10/21 09:59:39;;;;;;;1.75;0.00;;;13.80;99.90;;;;;;5032701;28;20026;-78
2023/10/21 10:02:06;;;;;;;0.00;0.00;;;13.80;99.90;;;;;;5032803;28;20503;-77
2023/10/21 10:04:35;;;;;;;0.35;0.00;;;13.90;99.90;;;;;;5032290;28;20125;-76
2023/10/21 10:07:06;;;;;;;0.63;0.00;;;13.90;99.90;;;;;;5032028;28;20038;-76
2023/10/21 10:09:33;;;;;;;1.90;0.00;;;13.90;99.90;;;;;;5034252;28;20048;-78
2023/10/21 10:12:01;;;;;;;2.85;0.00;;;14.10;99.90;;;;;;5032617;28;20537;-77
2023/10/21 10:14:30;;;;;;;0.43;0.10;;;14.40;99.90;;;;;;5032391;28;20022;-78
2023/10/21 10:16:55;;;;;;;;;;;14.70;99.90;;;;;;5034078;28;20080;-77
2023/10/21 10:19:52;;;;;;;0.10;0.00;;;14.30;99.90;;;;;;5032489;28;19905;-78
2023/10/21 10:22:18;;;;;;;1.42;0.00;;;14.40;99.90;;;;;;5029329;28;20516;-76
2023/10/21 10:24:55;;;;;;;0.10;0.00;;;14.40;99.90;;;;;;5033250;28;20052;-77
2023/10/21 10:27:24;;;;;;;1.10;0.00;;;14.50;99.90;;;;;;5032026;28;20051;-78
2023/10/21 10:29:51;;;;;;;1.08;0.00;;;14.50;99.90;;;;;;5031046;28;20055;-78
2023/10/21 10:32:17;;;;;;;0.88;0.00;;;14.60;99.90;;;;;;5033120;28;20076;-77
2023/10/21 10:34:53;;;;;;;0.98;0.05;;;14.70;99.90;;;;;;5032496;28;20014;-78
2023/10/21 10:37:24;;;;;;;2.08;0.00;;;14.80;99.90;;;;;;5031565;28;20393;-76
2023/10/21 10:39:50;;;;;;;2.45;0.00;;;15.70;99.90;;;;;;5032762;28;20029;-76
2023/10/21 10:42:16;;;;;;;2.83;0.00;;;15.00;99.90;;;;;;5031927;28;20388;-78
2023/10/21 10:44:42;;;;;;;0.10;0.00;;;15.10;99.90;;;;;;5034109;28;20039;-78
2023/10/21 10:47:10;;;;;;;2.65;0.00;;;15.20;99.90;;;;;;5036973;28;20064;-76
2023/10/21 10:49:59;;;;;;;0.10;0.00;;;15.20;99.90;;;;;;5036795;28;20029;-78
2023/10/21 10:52:31;;;;;;;0.52;0.20;;;15.20;99.90;;;;;;5035726;28;20037;-78
2023/10/21 10:54:58;;;;;;;1.55;0.00;;;15.20;99.90;;;;;;5036948;28;20017;-76
2023/10/21 10:57:27;;;;;;;0.63;0.00;;;15.20;99.90;;;;;;5035802;28;20013;-77
2023/10/21 10:59:53;;;;;;;1.33;0.00;;;15.30;99.90;;;;;;5035722;28;20040;-76
2023/10/21 11:02:18;;;;;;;2.08;0.00;;;15.30;99.90;;;;;;5036839;28;20022;-78
2023/10/21 11:04:49;;;;;;;4.38;0.30;;;15.30;99.90;;;;;;5036508;28;20393;-78
2023/10/21 11:07:25;;;;;;;1.48;0.00;;;15.30;99.90;;;;;;5036071;28;20034;-77
2023/10/21 11:10:02;;;;;;;5.47;0.45;;;15.30;99.90;;;;;;5037199;28;20397;-79
2023/10/21 11:12:27;;;;;;;1.98;0.00;;;15.40;99.90;;;;;;5037360;28;20021;-79
2023/10/21 11:14:53;;;;;;;1.67;0.10;;;15.40;99.90;;;;;;5035498;28;20022;-78
2023/10/21 11:17:19;;;;;;;1.92;0.00;;;15.30;99.90;;;;;;5037486;28;20481;-77
2023/10/21 11:19:45;;;;;;;3.35;0.00;;;15.30;99.90;;;;;;5037297;28;20025;-77
2023/10/21 11:22:26;;;;;;;1.40;0.30;;;15.30;99.90;;;;;;5037097;28;20485;-78
2023/10/21 11:24:58;;;;;;;1.30;0.00;;;15.30;99.90;;;;;;5036690;28;20558;-78
2023/10/21 11:27:24;;;;;;;1.13;0.00;;;15.30;99.90;;;;;;5036825;28;20026;-78
2023/10/21 11:29:52;;;;;;;0.75;0.00;;;15.40;99.90;;;;;;5035406;28;20037;-78
2023/10/21 11:32:28;;;;;;;2.47;0.08;;;15.40;99.90;;;;;;5035780;28;20017;-77
2023/10/21 11:34:54;;;;;;;0.20;0.00;;;15.50;99.90;;;;;;5036512;28;20032;-77
2023/10/21 11:37:20;;;;;;;3.45;0.25;;;15.80;99.90;;;;;;5035071;28;20018;-78
2023/10/21 11:39:48;;;;;;;4.20;0.35;;;16.30;99.90;;;;;;5036008;28;20489;-79
2023/10/21 11:42:17;;;;;;;2.08;0.00;;;16.20;99.90;;;;;;5036153;28;20048;-77
2023/10/21 11:44:54;;;;;;;1.73;0.10;;;16.30;99.90;;;;;;5036678;28;20017;-78
2023/10/21 11:47:23;;;;;;;3.17;0.00;;;16.20;99.90;;;;;;5034976;28;20025;-78
2023/10/21 11:49:49;;;;;;;6.82;1.20;;;16.20;99.90;;;;;;5036682;28;20565;-77
2023/10/21 11:52:16;;;;;;;4.28;0.00;;;16.20;99.90;;;;;;5036362;28;20101;-77
2023/10/21 12:19:16;;;;;;;1.88;0.20;;;15.50;99.90;;;;;;5037040;28;20029;-80
2023/10/21 12:21:50;;;;;;;1.27;0.00;;;15.40;99.90;;;;;;5037829;28;20060;-80
2023/10/21 12:39:48;;;;;;;0.25;0.05;;;16.10;99.90;;;;;;5036332;28;20120;-78
2023/10/21 12:44:57;;;;;;;5.22;0.22;;;16.10;99.90;;;;;;5037259;28;20037;-79
2023/10/21 12:47:24;;;;;;;2.97;0.05;;;16.20;99.90;;;;;;5035698;28;20029;-79
2023/10/21 12:49:50;;;;;;;2.58;0.00;;;16.30;99.90;;;;;;5035913;28;20024;-80
2023/10/21 12:52:16;;;;;;;3.00;0.38;;;16.40;99.90;;;;;;5033874;28;20029;-76
2023/10/21 12:54:44;;;;;;;3.45;0.73;;;16.70;99.90;;;;;;5033935;28;20028;-76
2023/10/21 12:57:11;;;;;;;0.75;0.00;;;16.70;99.90;;;;;;5033869;28;20397;-76
2023/10/21 12:59:37;;;;;;;3.70;0.08;;;16.70;99.90;;;;;;5034060;28;20026;-76
2023/10/21 13:02:09;;;;;;;3.20;0.20;;;16.60;99.90;;;;;;5033641;28;20078;-76
2023/10/21 13:04:37;;;;;;;1.65;0.00;;;16.40;99.90;;;;;;5032131;28;20026;-76
2023/10/21 13:07:06;;;;;;;2.00;0.15;;;16.20;99.90;;;;;;5031116;28;20033;-76
2023/10/21 13:09:33;;;;;;;2.40;0.00;;;16.10;99.90;;;;;;5033979;28;20152;-76
2023/10/21 13:11:59;;;;;;;4.00;0.22;;;15.90;99.90;;;;;;5033527;28;20021;-76
2023/10/21 13:14:27;;;;;;;4.53;0.00;;;15.70;99.90;;;;;;5033400;28;20025;-76
2023/10/21 13:16:53;;;;;;;2.90;0.00;;;15.70;99.90;;;;;;5033212;28;20028;-76
2023/10/21 13:19:19;;;;;;;4.43;0.25;;;15.70;99.90;;;;;;5031955;28;20359;-76
2023/10/21 13:21:44;;;;;;;4.95;0.00;;;15.70;99.90;;;;;;5031936;28;20061;-76
2023/10/21 13:24:10;;;;;;;3.47;0.28;;;15.60;99.90;;;;;;5033271;28;20029;-76
2023/10/21 13:26:39;;;;;;;0.77;0.00;;;15.50;99.90;;;;;;5033733;28;20029;-76
2023/10/21 13:29:08;;;;;;;2.20;0.00;;;15.40;99.90;;;;;;5031968;28;20051;-76
2023/10/21 13:31:33;;;;;;;2.67;0.00;;;15.50;99.90;;;;;;5033210;28;20073;-76